Time;durP1;ratioP1;P1;durP2;ratioP2;P2;SDS_P1;SDS_P2;PMS_P1;PMS_P2;Temp;Humidity;BMP_temperature;BMP_pressure;BME280_temperature;BME280_humidity;BME280_pressure;Samples;Min_cycle;Max_cycle;Signal;HPM_P1;HPM_P2
2022/12/12 00:02:55;;;;;;;23.92;11.90;;;2.30;84.80;;;;;;9175895;19;20086;-69
2022/12/12 00:06:02;;;;;;;21.50;11.25;;;2.30;84.80;;;;;;9177476;19;20163;-70
2022/12/12 00:09:05;;;;;;;28.38;11.10;;;2.30;84.80;;;;;;9174787;19;20018;-69
2022/12/12 00:12:09;;;;;;;;;;;2.30;84.80;;;;;;9176291;19;20046;-69
2022/12/12 00:15:15;;;;;;;22.57;9.83;;;2.30;84.80;;;;;;9177205;19;19929;-70
2022/12/12 00:18:19;;;;;;;23.58;10.98;;;2.30;84.80;;;;;;9177087;19;20468;-69
2022/12/12 00:21:26;;;;;;;22.50;11.13;;;2.30;84.80;;;;;;9176972;19;20082;-69
2022/12/12 00:24:29;;;;;;;22.20;10.88;;;2.30;84.80;;;;;;9172040;19;20056;-70
2022/12/12 00:27:33;;;;;;;22.33;11.23;;;2.30;84.80;;;;;;9175370;19;20463;-70
2022/12/12 00:30:39;;;;;;;25.50;12.00;;;2.30;84.80;;;;;;9175852;19;20014;-68
2022/12/12 00:33:45;;;;;;;26.98;11.18;;;2.30;84.70;;;;;;9176942;19;20026;-71
2022/12/12 00:36:50;;;;;;;25.02;11.70;;;2.30;84.70;;;;;;9176494;19;20023;-69
2022/12/12 00:39:54;;;;;;;21.10;10.27;;;2.30;84.70;;;;;;9175283;19;20022;-69
2022/12/12 00:42:58;;;;;;;22.33;10.40;;;2.30;84.60;;;;;;9175250;19;20019;-68
2022/12/12 00:46:04;;;;;;;;;;;2.40;84.70;;;;;;9177308;19;20006;-68
2022/12/12 00:49:08;;;;;;;24.65;12.07;;;2.40;84.70;;;;;;9174857;19;20328;-70
2022/12/12 00:52:11;;;;;;;;;;;2.40;84.70;;;;;;9170674;19;20342;-70
2022/12/12 00:55:15;;;;;;;22.80;11.90;;;2.40;84.70;;;;;;9175265;19;19922;-69
2022/12/12 00:58:18;;;;;;;;;;;2.40;84.60;;;;;;9173752;19;20335;-69
2022/12/12 01:01:26;;;;;;;26.52;12.88;;;2.40;84.60;;;;;;9175443;19;19990;-69
2022/12/12 01:04:30;;;;;;;26.83;11.02;;;2.40;84.70;;;;;;9174853;19;20010;-70
2022/12/12 01:07:34;;;;;;;;;;;2.40;84.60;;;;;;9176359;19;20048;-69
2022/12/12 01:10:38;;;;;;;25.03;11.07;;;2.40;84.70;;;;;;9174902;19;20280;-70
2022/12/12 01:13:43;;;;;;;23.80;11.55;;;2.40;84.60;;;;;;9182029;19;20019;-70
2022/12/12 01:16:48;;;;;;;21.15;11.93;;;2.40;84.50;;;;;;9181990;19;20025;-70
2022/12/12 01:19:52;;;;;;;26.10;12.00;;;2.40;84.50;;;;;;9182491;19;20018;-69
2022/12/12 01:22:55;;;;;;;;;;;2.40;84.50;;;;;;9183337;19;20022;-69
2022/12/12 01:26:03;;;;;;;26.05;13.32;;;2.40;84.50;;;;;;9178584;19;19964;-69
2022/12/12 01:29:07;;;;;;;27.15;12.30;;;2.40;84.50;;;;;;9182293;19;20035;-70
2022/12/12 01:32:12;;;;;;;;;;;2.40;84.50;;;;;;9181890;19;20035;-68
2022/12/12 01:35:16;;;;;;;26.10;11.88;;;2.40;84.50;;;;;;9182247;19;19947;-70
2022/12/12 01:38:20;;;;;;;;;;;2.40;84.50;;;;;;9183336;19;20014;-67
2022/12/12 01:41:24;;;;;;;24.63;10.83;;;2.40;84.40;;;;;;9180556;19;19939;-70
2022/12/12 01:44:41;;;;;;;29.02;11.85;;;2.40;84.40;;;;;;9182348;19;20469;-70
2022/12/12 01:47:46;;;;;;;26.40;12.82;;;2.40;84.40;;;;;;9180432;19;20014;-71
2022/12/12 01:50:51;;;;;;;23.95;12.13;;;2.40;84.40;;;;;;9181658;19;20459;-70
2022/12/12 01:54:01;;;;;;;20.00;11.35;;;2.40;84.50;;;;;;9182002;19;20498;-69
2022/12/12 01:57:09;;;;;;;23.92;11.02;;;2.40;84.50;;;;;;9181795;19;20018;-69
2022/12/12 02:00:15;;;;;;;22.75;10.93;;;2.40;84.40;;;;;;9181380;19;20117;-69
2022/12/12 02:03:22;;;;;;;23.88;11.52;;;2.40;84.40;;;;;;9181531;19;20022;-69
2022/12/12 02:06:28;;;;;;;22.27;10.63;;;2.40;84.40;;;;;;9181224;19;20420;-70
2022/12/12 02:09:34;;;;;;;24.73;11.15;;;2.40;84.40;;;;;;9180490;19;20011;-69
2022/12/12 02:12:37;;;;;;;24.65;11.50;;;2.40;85.00;;;;;;9178900;19;20042;-68
2022/12/12 02:15:43;;;;;;;;;;;2.40;84.30;;;;;;9181526;19;20046;-70
2022/12/12 02:18:56;;;;;;;24.13;11.90;;;2.40;84.30;;;;;;9180627;19;19922;-70
2022/12/12 02:22:04;;;;;;;26.03;12.30;;;2.40;84.30;;;;;;9180932;19;20018;-68
2022/12/12 02:25:32;;;;;;;24.02;12.15;;;2.40;84.30;;;;;;9176302;19;20018;-70
2022/12/12 02:29:02;;;;;;;22.00;11.63;;;2.40;84.20;;;;;;9180479;19;20019;-68
2022/12/12 02:32:12;;;;;;;24.77;11.52;;;2.40;84.20;;;;;;9178663;19;20011;-69
2022/12/12 02:35:22;;;;;;;24.80;11.95;;;2.40;84.20;;;;;;9179727;19;20506;-69
2022/12/12 02:38:30;;;;;;;23.10;11.18;;;2.40;84.20;;;;;;9178877;19;20084;-70
2022/12/12 02:41:39;;;;;;;24.95;12.27;;;2.40;84.20;;;;;;9179932;19;20021;-70
2022/12/12 02:44:51;;;;;;;23.75;11.15;;;2.40;84.80;;;;;;9178324;19;20026;-67
2022/12/12 02:48:04;;;;;;;26.40;12.63;;;2.40;84.20;;;;;;9179243;19;20475;-68
2022/12/12 02:51:11;;;;;;;25.13;12.05;;;2.40;84.10;;;;;;9178746;19;20014;-69
2022/12/12 02:54:16;;;;;;;25.38;11.23;;;2.40;84.10;;;;;;9177863;19;20030;-70
2022/12/12 02:57:23;;;;;;;28.23;13.02;;;2.40;84.10;;;;;;9177698;19;20050;-67
2022/12/12 03:00:27;;;;;;;22.10;11.30;;;2.40;84.10;;;;;;9177718;19;20010;-67
2022/12/12 03:10:32;;;;;;;27.10;12.98;;;2.40;84.10;;;;;;9179892;19;20011;-67
2022/12/12 03:13:46;;;;;;;27.60;11.88;;;2.40;84.10;;;;;;9176006;19;20459;-70
2022/12/12 03:16:56;;;;;;;25.23;12.07;;;2.40;84.20;;;;;;9179099;19;20045;-69
2022/12/12 03:20:12;;;;;;;25.70;11.93;;;2.40;84.20;;;;;;9178831;19;20379;-70
2022/12/12 03:23:19;;;;;;;25.88;11.60;;;2.40;84.20;;;;;;9178405;19;20010;-70
2022/12/12 03:26:28;;;;;;;24.92;12.10;;;2.40;84.10;;;;;;9170422;19;20014;-68
2022/12/12 03:29:36;;;;;;;24.80;11.95;;;2.40;84.10;;;;;;9177192;19;20022;-66
2022/12/12 03:32:46;;;;;;;26.38;12.05;;;2.40;84.10;;;;;;9175557;19;20014;-67
2022/12/12 03:35:57;;;;;;;23.95;12.05;;;2.40;84.10;;;;;;9176229;19;20109;-69
2022/12/12 03:39:05;;;;;;;24.77;12.00;;;2.40;84.00;;;;;;9177749;19;20025;-69
2022/12/12 03:42:16;;;;;;;22.75;11.40;;;2.40;84.00;;;;;;9178650;19;20014;-71
2022/12/12 03:45:26;;;;;;;23.33;11.65;;;2.40;84.00;;;;;;9177145;19;20021;-69
2022/12/12 03:48:32;;;;;;;27.05;12.57;;;2.40;84.10;;;;;;9177329;19;20013;-69
2022/12/12 03:51:41;;;;;;;27.88;11.68;;;2.40;84.00;;;;;;9174629;19;20018;-70
2022/12/12 03:54:49;;;;;;;24.13;10.80;;;2.40;84.00;;;;;;9177061;19;20111;-69
2022/12/12 03:57:58;;;;;;;24.92;11.85;;;2.40;84.00;;;;;;9178092;19;20010;-71
2022/12/12 04:01:06;;;;;;;22.60;11.13;;;2.40;83.90;;;;;;9178130;19;20021;-71
2022/12/12 04:04:15;;;;;;;22.67;10.38;;;2.40;83.90;;;;;;9176739;19;20046;-71
2022/12/12 04:07:25;;;;;;;24.65;10.88;;;2.40;83.90;;;;;;9177947;19;20115;-69
2022/12/12 04:13:59;;;;;;;23.95;12.20;;;2.40;84.00;;;;;;9173871;19;20031;-70
2022/12/12 04:17:07;;;;;;;24.05;10.93;;;2.40;83.90;;;;;;9175473;19;20018;-71
2022/12/12 04:23:52;;;;;;;23.45;11.02;;;2.40;83.90;;;;;;9176548;19;20412;-68
2022/12/12 04:27:00;;;;;;;22.00;10.60;;;2.40;83.90;;;;;;9175022;19;20019;-69
2022/12/12 04:30:07;;;;;;;24.80;11.00;;;2.40;83.90;;;;;;9176853;19;20084;-70
2022/12/12 04:33:15;;;;;;;21.48;11.43;;;2.40;84.00;;;;;;9173204;19;20039;-68
2022/12/12 04:36:21;;;;;;;23.35;11.00;;;2.40;83.90;;;;;;9176291;19;20023;-68
2022/12/12 04:39:30;;;;;;;22.65;10.65;;;2.40;83.80;;;;;;9175468;19;20042;-70
2022/12/12 04:42:37;;;;;;;21.73;10.57;;;2.40;83.80;;;;;;9174393;19;20022;-69
2022/12/12 04:45:44;;;;;;;20.02;10.50;;;2.40;83.80;;;;;;9175874;19;20022;-70
2022/12/12 04:48:55;;;;;;;21.70;10.80;;;2.40;83.80;;;;;;9184021;19;20019;-70
2022/12/12 04:52:03;;;;;;;24.42;12.30;;;2.40;83.70;;;;;;9179765;19;20465;-69
2022/12/12 04:55:13;;;;;;;23.73;11.50;;;2.40;83.70;;;;;;9183791;19;20013;-69
2022/12/12 04:58:18;;;;;;;26.23;11.45;;;2.40;83.70;;;;;;9183562;19;20025;-68
2022/12/12 05:01:27;;;;;;;27.45;11.55;;;2.40;83.70;;;;;;9183300;19;20014;-69
2022/12/12 05:04:38;;;;;;;27.13;12.88;;;2.40;83.60;;;;;;9183766;19;20019;-70
2022/12/12 05:07:45;;;;;;;25.58;11.50;;;2.40;83.60;;;;;;9182016;19;20027;-71
2022/12/12 05:10:54;;;;;;;31.88;12.73;;;2.30;83.50;;;;;;9183269;19;20018;-68
2022/12/12 05:13:58;;;;;;;24.80;11.65;;;2.30;83.60;;;;;;9180169;19;20388;-69
2022/12/12 05:17:09;;;;;;;25.48;11.40;;;2.30;83.60;;;;;;9181828;19;20015;-69
2022/12/12 05:20:13;;;;;;;24.42;12.45;;;2.30;83.60;;;;;;9180678;19;20023;-70
2022/12/12 05:23:17;;;;;;;27.02;13.02;;;2.30;83.60;;;;;;9182486;19;20026;-69
2022/12/12 05:26:25;;;;;;;28.98;12.40;;;2.30;83.60;;;;;;9178988;19;20018;-69
2022/12/12 05:29:29;;;;;;;31.13;13.45;;;2.30;83.50;;;;;;9181952;19;20056;-68
2022/12/12 05:32:32;;;;;;;;;;;2.30;83.50;;;;;;9181596;19;20007;-70
2022/12/12 05:35:36;;;;;;;28.17;12.27;;;2.30;83.50;;;;;;9181651;19;19922;-67
2022/12/12 05:38:40;;;;;;;;;;;2.30;83.60;;;;;;9183617;19;20018;-70
2022/12/12 05:41:45;;;;;;;24.20;11.93;;;2.20;83.60;;;;;;9179456;19;19931;-69
2022/12/12 05:44:49;;;;;;;28.98;13.10;;;2.20;83.60;;;;;;9181871;19;20806;-70
2022/12/12 05:47:53;;;;;;;;;;;2.20;83.60;;;;;;9181415;19;20070;-70
2022/12/12 05:50:57;;;;;;;30.88;13.30;;;2.20;84.20;;;;;;9181664;19;20248;-70
2022/12/12 05:54:01;;;;;;;27.02;12.38;;;2.20;83.60;;;;;;9178966;19;20023;-68
2022/12/12 05:57:06;;;;;;;25.27;12.40;;;2.20;83.50;;;;;;9180426;19;20050;-68
2022/12/12 06:00:11;;;;;;;29.48;12.90;;;2.20;83.50;;;;;;9181346;19;20018;-68
2022/12/12 06:03:15;;;;;;;26.90;13.15;;;2.20;83.50;;;;;;9179369;19;20474;-69
2022/12/12 06:06:19;;;;;;;;;;;2.20;83.50;;;;;;9180307;19;20031;-69
2022/12/12 06:09:22;;;;;;;28.63;13.10;;;2.20;83.50;;;;;;9181699;19;19930;-67
2022/12/12 06:12:28;;;;;;;24.08;11.27;;;2.20;83.50;;;;;;9179397;19;20022;-69
2022/12/12 06:15:32;;;;;;;25.95;12.25;;;2.20;83.50;;;;;;9179508;19;20010;-69
2022/12/12 06:18:35;;;;;;;;;;;2.20;83.50;;;;;;9181486;19;20486;-72
2022/12/12 06:21:39;;;;;;;30.27;12.80;;;2.20;83.50;;;;;;9180883;19;19919;-69
2022/12/12 06:24:43;;;;;;;29.70;12.93;;;2.20;83.50;;;;;;9174312;19;20480;-70
2022/12/12 06:27:48;;;;;;;;;;;2.20;83.40;;;;;;9180269;19;20014;-70
2022/12/12 06:30:53;;;;;;;23.38;10.35;;;2.20;83.40;;;;;;9180756;19;19922;-68
2022/12/12 06:33:57;;;;;;;26.42;12.35;;;2.20;83.50;;;;;;9176873;19;20011;-69
2022/12/12 06:37:02;;;;;;;29.65;11.93;;;2.20;83.50;;;;;;9180473;19;20011;-69
2022/12/12 06:40:07;;;;;;;26.80;11.95;;;2.20;83.50;;;;;;9177736;19;20044;-70
2022/12/12 06:43:12;;;;;;;24.75;11.25;;;2.20;83.50;;;;;;9179406;19;20538;-70
2022/12/12 06:46:18;;;;;;;28.33;12.85;;;2.20;83.50;;;;;;9179747;19;20011;-68
2022/12/12 06:49:22;;;;;;;25.83;11.07;;;2.20;83.50;;;;;;9178455;19;20014;-68
2022/12/12 06:52:25;;;;;;;;;;;2.20;83.50;;;;;;9177662;19;20133;-67
2022/12/12 06:55:29;;;;;;;23.77;11.37;;;2.20;83.40;;;;;;9178431;19;19915;-67
2022/12/12 06:58:35;;;;;;;18.95;10.73;;;2.20;84.00;;;;;;9179545;19;20017;-69
2022/12/12 07:01:39;;;;;;;30.35;11.23;;;2.20;84.00;;;;;;9178036;19;20070;-69
2022/12/12 07:04:43;;;;;;;23.58;10.95;;;2.20;83.40;;;;;;9177494;19;20371;-70
2022/12/12 07:07:47;;;;;;;20.80;10.45;;;2.20;83.40;;;;;;9174639;19;20027;-70
2022/12/12 07:10:51;;;;;;;;;;;2.20;83.30;;;;;;9177655;19;20022;-69
2022/12/12 07:13:58;;;;;;;22.70;10.67;;;2.20;83.30;;;;;;9171608;19;20386;-67
2022/12/12 07:17:02;;;;;;;23.90;11.15;;;2.20;83.30;;;;;;9171042;19;20672;-69
2022/12/12 07:20:06;;;;;;;;;;;2.20;83.30;;;;;;9172136;19;20421;-70
2022/12/12 07:23:11;;;;;;;23.35;10.90;;;2.20;83.30;;;;;;9158392;19;19926;-68
2022/12/12 07:26:17;;;;;;;23.13;11.48;;;2.20;83.30;;;;;;9163192;19;20019;-68
2022/12/12 07:29:22;;;;;;;29.45;12.40;;;2.20;83.30;;;;;;9164023;19;20039;-69
2022/12/12 07:32:26;;;;;;;31.08;12.88;;;2.20;83.40;;;;;;9161924;19;20056;-69
2022/12/12 07:35:30;;;;;;;;;;;2.20;83.30;;;;;;9166261;19;20015;-70
2022/12/12 07:38:34;;;;;;;31.10;13.13;;;2.20;83.30;;;;;;9171605;19;19922;-69
2022/12/12 07:41:38;;;;;;;30.80;13.20;;;2.20;83.40;;;;;;9174298;19;20021;-70
2022/12/12 07:44:46;;;;;;;29.20;12.13;;;2.20;83.40;;;;;;9172384;19;20045;-68
2022/12/12 07:47:50;;;;;;;27.98;13.23;;;2.20;83.40;;;;;;9166730;19;20481;-69
2022/12/12 07:50:54;;;;;;;28.23;12.35;;;2.20;83.50;;;;;;9172012;19;20042;-67
2022/12/12 07:54:00;;;;;;;27.13;12.60;;;2.20;83.40;;;;;;9165837;19;20014;-69
2022/12/12 07:57:04;;;;;;;;;;;2.20;83.40;;;;;;9172317;19;20475;-69
2022/12/12 08:00:13;;;;;;;24.70;11.63;;;2.20;83.40;;;;;;9173011;19;19930;-70
2022/12/12 08:03:17;;;;;;;25.13;12.25;;;2.20;83.40;;;;;;9171353;19;20020;-69
2022/12/12 08:06:21;;;;;;;;;;;2.20;83.40;;;;;;9172159;19;20022;-70
2022/12/12 08:09:25;;;;;;;31.55;12.60;;;2.20;83.50;;;;;;9169033;19;19930;-69
2022/12/12 08:12:29;;;;;;;;;;;2.20;83.50;;;;;;9164828;19;20044;-71
2022/12/12 08:15:35;;;;;;;28.08;12.77;;;2.20;83.50;;;;;;9173248;19;19927;-70
2022/12/12 08:18:39;;;;;;;34.25;13.52;;;2.20;83.50;;;;;;9168284;19;20022;-70
2022/12/12 08:21:43;;;;;;;30.83;13.32;;;2.20;83.50;;;;;;9168290;19;20010;-70
2022/12/12 08:24:49;;;;;;;33.42;14.82;;;2.20;83.50;;;;;;9165654;19;20487;-68
2022/12/12 08:27:53;;;;;;;32.13;14.25;;;2.20;83.50;;;;;;9168304;19;20019;-71
2022/12/12 08:30:58;;;;;;;;;;;2.20;83.50;;;;;;9172693;19;20014;-70
2022/12/12 08:34:05;;;;;;;30.25;14.70;;;2.20;83.40;;;;;;9168634;19;19933;-72
2022/12/12 08:37:09;;;;;;;28.10;13.43;;;2.30;83.50;;;;;;9176460;19;20041;-70
2022/12/12 08:40:13;;;;;;;;;;;2.30;83.40;;;;;;9176886;19;20042;-71
2022/12/12 08:43:17;;;;;;;31.95;15.10;;;2.30;83.50;;;;;;9174590;19;19982;-71
2022/12/12 08:46:22;;;;;;;;;;;2.30;83.50;;;;;;9175277;19;20019;-69
2022/12/12 08:49:26;;;;;;;38.75;15.55;;;2.30;83.50;;;;;;9175420;19;19933;-70
2022/12/12 08:52:29;;;;;;;;;;;2.30;83.50;;;;;;9172229;19;20011;-71
2022/12/12 08:55:33;;;;;;;38.55;16.35;;;2.30;83.50;;;;;;9172281;19;20021;-71
2022/12/12 08:58:37;;;;;;;;;;;2.30;83.50;;;;;;9168520;19;20010;-71
2022/12/12 09:01:42;;;;;;;39.33;17.15;;;2.30;83.50;;;;;;9168999;19;19943;-71
2022/12/12 09:04:46;;;;;;;37.97;16.98;;;2.30;83.50;;;;;;9165011;19;20370;-72
2022/12/12 09:07:50;;;;;;;;;;;2.30;83.50;;;;;;9169754;19;20007;-66
2022/12/12 09:10:54;;;;;;;40.40;16.85;;;2.40;83.60;;;;;;9166497;19;19926;-71
2022/12/12 09:13:58;;;;;;;;;;;2.40;83.50;;;;;;9155164;19;20595;-70
2022/12/12 09:17:03;;;;;;;45.27;18.07;;;2.40;83.50;;;;;;9159244;19;19918;-70
2022/12/12 09:20:08;;;;;;;38.80;16.90;;;2.40;83.50;;;;;;9162635;19;20066;-69
2022/12/12 09:23:12;;;;;;;39.95;16.88;;;2.40;83.50;;;;;;9157977;19;20018;-70
2022/12/12 09:26:17;;;;;;;42.05;17.05;;;2.40;83.60;;;;;;9152731;19;20015;-70
2022/12/12 09:29:21;;;;;;;48.85;17.63;;;2.40;83.50;;;;;;9162676;19;20022;-68
2022/12/12 09:32:26;;;;;;;43.63;15.88;;;2.40;83.60;;;;;;9167853;19;20042;-69
2022/12/12 09:35:30;;;;;;;42.95;17.27;;;2.50;83.60;;;;;;9173363;19;20011;-71
2022/12/12 09:38:34;;;;;;;;;;;2.50;83.60;;;;;;9174144;19;20018;-70
2022/12/12 09:41:38;;;;;;;48.63;18.40;;;2.50;83.60;;;;;;9166736;19;19927;-70
2022/12/12 09:44:41;;;;;;;;;;;2.50;83.50;;;;;;9176743;19;20042;-69
2022/12/12 09:47:50;;;;;;;40.40;18.10;;;2.60;83.60;;;;;;9175727;19;19923;-70
2022/12/12 09:50:54;;;;;;;37.22;16.50;;;2.60;83.50;;;;;;9173407;19;20586;-70
2022/12/12 09:53:58;;;;;;;39.17;17.42;;;2.60;83.60;;;;;;9163403;19;20013;-69
2022/12/12 09:57:23;;;;;;;42.75;17.55;;;2.60;83.50;;;;;;9174008;19;20018;-69
2022/12/12 10:00:31;;;;;;;43.92;17.45;;;2.60;83.50;;;;;;9175377;19;20014;-72
2022/12/12 10:03:51;;;;;;;42.42;17.92;;;2.60;83.50;;;;;;9172580;19;21029;-71
2022/12/12 10:07:02;;;;;;;44.40;18.48;;;2.60;83.50;;;;;;9172859;19;20026;-72
2022/12/12 10:10:13;;;;;;;39.33;16.38;;;2.60;83.60;;;;;;9172617;19;20048;-68
2022/12/12 10:13:22;;;;;;;41.22;17.65;;;2.70;83.60;;;;;;9168967;19;20388;-67
2022/12/12 10:16:28;;;;;;;37.38;16.48;;;2.70;83.60;;;;;;9175680;19;20102;-70
2022/12/12 10:19:42;;;;;;;35.58;16.95;;;2.70;83.60;;;;;;9168959;19;20023;-69
2022/12/12 10:22:50;;;;;;;40.60;17.42;;;2.70;83.50;;;;;;9170671;19;20502;-70
2022/12/12 10:25:58;;;;;;;41.63;18.25;;;2.80;83.60;;;;;;9178022;19;20050;-70
2022/12/12 10:29:11;;;;;;;41.13;17.95;;;2.80;83.60;;;;;;9177871;19;20022;-69
2022/12/12 10:32:27;;;;;;;42.30;17.93;;;2.80;83.60;;;;;;9176821;19;20025;-68
2022/12/12 10:35:40;;;;;;;43.67;17.17;;;2.80;83.60;;;;;;9170083;19;20496;-70
2022/12/12 10:39:01;;;;;;;47.00;18.67;;;2.90;83.60;;;;;;9171189;19;20029;-68
2022/12/12 10:42:17;;;;;;;46.45;17.45;;;2.90;83.60;;;;;;9168558;19;20668;-69
2022/12/12 10:45:47;;;;;;;39.67;17.30;;;2.90;83.60;;;;;;9166121;19;20028;-67
2022/12/12 10:48:52;;;;;;;42.38;17.10;;;3.00;83.60;;;;;;9169200;19;20024;-71
2022/12/12 10:52:01;;;;;;;49.38;17.83;;;3.00;83.60;;;;;;9168356;19;20097;-68
2022/12/12 10:55:18;;;;;;;43.10;18.17;;;3.00;83.50;;;;;;9171804;19;20519;-67
2022/12/12 10:58:26;;;;;;;42.53;18.48;;;3.00;83.50;;;;;;9171615;19;20717;-69
2022/12/12 11:01:33;;;;;;;45.03;18.42;;;3.00;83.40;;;;;;9170209;19;20018;-71
2022/12/12 11:05:16;;;;;;;39.25;17.50;;;3.10;83.50;;;;;;9171900;19;20018;-71
2022/12/12 11:08:28;;;;;;;45.00;17.42;;;3.10;83.50;;;;;;9172125;19;20010;-69
2022/12/12 11:11:32;;;;;;;37.22;15.95;;;3.10;83.50;;;;;;9175179;19;20032;-70
2022/12/12 11:14:36;;;;;;;;;;;3.10;83.40;;;;;;9177135;19;20038;-70
2022/12/12 11:17:41;;;;;;;35.50;15.02;;;3.10;83.40;;;;;;9176565;19;19922;-71
2022/12/12 11:20:47;;;;;;;35.95;16.02;;;3.10;83.40;;;;;;9178035;19;20014;-71
2022/12/12 11:23:55;;;;;;;40.90;17.00;;;3.10;83.40;;;;;;9178816;19;20082;-70
2022/12/12 11:27:01;;;;;;;35.47;15.88;;;3.20;83.40;;;;;;9178698;19;20010;-70
2022/12/12 11:30:08;;;;;;;33.50;15.27;;;3.20;83.40;;;;;;9177957;19;20031;-70
2022/12/12 11:33:20;;;;;;;34.17;15.13;;;3.20;83.50;;;;;;9177381;19;20018;-69
2022/12/12 11:36:31;;;;;;;35.70;15.48;;;3.20;83.40;;;;;;9175430;19;20463;-69
2022/12/12 11:39:42;;;;;;;31.95;14.77;;;3.20;83.40;;;;;;9169141;19;20019;-68
2022/12/12 11:42:46;;;;;;;36.88;15.93;;;3.20;83.30;;;;;;9166198;19;20015;-70
2022/12/12 11:45:59;;;;;;;37.28;15.32;;;3.30;83.40;;;;;;9166689;19;20354;-66
2022/12/12 11:49:06;;;;;;;35.58;16.02;;;3.30;83.40;;;;;;9165636;19;20019;-70
2022/12/12 11:52:20;;;;;;;37.83;15.73;;;3.30;83.40;;;;;;9161526;19;20679;-69
2022/12/12 11:55:37;;;;;;;40.65;15.80;;;3.30;83.30;;;;;;9163642;19;20400;-65
2022/12/12 11:58:47;;;;;;;41.33;16.48;;;3.30;83.30;;;;;;9166759;19;20029;-67
2022/12/12 12:01:59;;;;;;;40.88;17.27;;;3.40;83.30;;;;;;9162396;19;20026;-69
2022/12/12 12:05:12;;;;;;;41.30;16.98;;;3.40;83.30;;;;;;9162277;19;20491;-70
2022/12/12 12:08:38;;;;;;;42.03;17.08;;;3.40;83.40;;;;;;9163811;19;20146;-68
2022/12/12 12:11:53;;;;;;;52.30;20.60;;;3.40;83.30;;;;;;9166043;19;20018;-67
2022/12/12 12:15:15;;;;;;;51.28;21.98;;;3.40;83.30;;;;;;9167123;19;20026;-69
2022/12/12 12:18:48;;;;;;;60.28;22.80;;;3.40;83.30;;;;;;9173359;19;20482;-69
2022/12/12 12:22:04;;;;;;;60.15;22.80;;;3.50;83.30;;;;;;9175270;19;20605;-68
2022/12/12 12:25:22;;;;;;;55.33;23.08;;;3.50;83.30;;;;;;9176047;19;20010;-69
2022/12/12 12:29:00;;;;;;;57.13;22.65;;;3.50;83.30;;;;;;9172510;19;20014;-68
2022/12/12 12:32:13;;;;;;;52.85;21.15;;;3.50;83.20;;;;;;9168605;19;20017;-69
2022/12/12 12:35:27;;;;;;;55.40;23.50;;;3.50;83.30;;;;;;9172169;19;20017;-70
2022/12/12 12:38:51;;;;;;;63.10;23.65;;;3.60;83.30;;;;;;9169614;19;20022;-67
2022/12/12 12:42:11;;;;;;;50.42;23.08;;;3.50;83.30;;;;;;9170474;19;20479;-68
2022/12/12 12:45:22;;;;;;;54.05;23.48;;;3.60;83.30;;;;;;9169785;19;20022;-70
2022/12/12 12:48:34;;;;;;;53.10;22.33;;;3.60;83.30;;;;;;9167075;19;20022;-68
2022/12/12 12:51:43;;;;;;;59.72;24.75;;;3.60;83.30;;;;;;9161493;19;20026;-68
2022/12/12 12:54:57;;;;;;;55.67;22.65;;;3.60;83.30;;;;;;9160598;19;20038;-67
2022/12/12 12:58:04;;;;;;;57.13;24.85;;;3.60;83.30;;;;;;9165819;19;20018;-68
2022/12/12 13:01:14;;;;;;;59.15;24.05;;;3.60;83.30;;;;;;9170640;19;20031;-69
2022/12/12 13:04:24;;;;;;;61.47;24.27;;;3.70;83.30;;;;;;9163323;19;20019;-70
2022/12/12 13:07:35;;;;;;;56.38;24.23;;;3.70;83.30;;;;;;9170433;19;20105;-69
2022/12/12 13:10:48;;;;;;;56.38;23.05;;;3.70;83.30;;;;;;9177474;19;20097;-68
2022/12/12 13:13:56;;;;;;;51.30;22.90;;;3.70;83.20;;;;;;9169505;19;20546;-70
2022/12/12 13:17:05;;;;;;;57.78;22.63;;;3.70;83.20;;;;;;9163994;19;20015;-68
2022/12/12 13:20:16;;;;;;;55.38;22.23;;;3.70;83.10;;;;;;9169133;19;20537;-68
2022/12/12 13:23:36;;;;;;;52.95;22.98;;;3.70;83.10;;;;;;9170225;19;20024;-69
2022/12/12 13:26:45;;;;;;;54.53;22.38;;;3.60;83.00;;;;;;9169512;19;20052;-69
2022/12/12 13:29:52;;;;;;;50.67;22.55;;;3.60;83.00;;;;;;9169306;19;20026;-67
2022/12/12 13:33:18;;;;;;;50.58;19.05;;;3.60;83.00;;;;;;9170712;19;20018;-68
2022/12/12 13:36:27;;;;;;;49.17;18.90;;;3.60;83.00;;;;;;9174616;19;20027;-69
2022/12/12 13:39:36;;;;;;;46.90;19.48;;;3.60;83.00;;;;;;9173804;19;20786;-68
2022/12/12 13:42:55;;;;;;;43.38;17.70;;;3.60;83.00;;;;;;9169452;19;20028;-68
2022/12/12 13:45:59;;;;;;;48.22;19.38;;;3.60;83.00;;;;;;9175581;19;20565;-70
2022/12/12 13:49:24;;;;;;;53.70;20.30;;;3.50;83.00;;;;;;9166055;19;20018;-68
2022/12/12 13:52:33;;;;;;;48.10;19.17;;;3.50;82.90;;;;;;9161281;19;20015;-70
2022/12/12 13:55:37;;;;;;;44.65;18.70;;;3.50;83.00;;;;;;9167994;19;20048;-68
2022/12/12 13:58:41;;;;;;;39.97;18.08;;;3.50;82.90;;;;;;9171788;19;20052;-69
2022/12/12 14:01:44;;;;;;;43.67;18.50;;;3.40;83.00;;;;;;9170448;19;20026;-67
2022/12/12 14:05:06;;;;;;;;;;;3.40;82.90;;;;;;9169731;19;20494;-69
2022/12/12 14:08:23;;;;;;;52.75;18.63;;;3.40;82.90;;;;;;9173966;19;19923;-68
2022/12/12 14:11:37;;;;;;;49.25;18.23;;;3.30;82.80;;;;;;9171303;19;20038;-67
2022/12/12 14:14:42;;;;;;;45.35;19.05;;;3.30;82.90;;;;;;9179024;19;20018;-69
2022/12/12 14:17:54;;;;;;;41.97;18.55;;;3.30;83.00;;;;;;9181092;19;20099;-70
2022/12/12 14:21:02;;;;;;;46.53;18.15;;;3.20;82.90;;;;;;9181530;19;20478;-69
2022/12/12 14:24:35;;;;;;;38.65;17.38;;;3.20;83.00;;;;;;9179491;19;20022;-69
2022/12/12 14:28:14;;;;;;;29.23;12.80;;;3.20;82.90;;;;;;9175015;19;20022;-69
2022/12/12 14:31:18;;;;;;;42.60;16.63;;;3.20;83.00;;;;;;9170662;19;20026;-69
2022/12/12 14:34:30;;;;;;;40.10;17.75;;;3.10;83.00;;;;;;9164783;19;20090;-70
2022/12/12 14:37:50;;;;;;;42.78;17.15;;;3.10;83.00;;;;;;9167982;19;20030;-70
2022/12/12 14:41:00;;;;;;;36.70;16.67;;;3.10;83.00;;;;;;9168931;19;20014;-72
2022/12/12 14:44:14;;;;;;;37.38;16.65;;;3.00;83.00;;;;;;9172687;19;20472;-70
2022/12/12 14:47:38;;;;;;;38.10;16.67;;;3.00;83.00;;;;;;9175178;19;20021;-69
2022/12/12 14:50:54;;;;;;;32.50;14.68;;;3.00;83.00;;;;;;9174078;19;20094;-68
2022/12/12 14:54:00;;;;;;;31.95;15.13;;;3.00;83.00;;;;;;9164447;19;20046;-68
2022/12/12 14:57:07;;;;;;;31.05;13.65;;;2.90;82.90;;;;;;9172928;19;20063;-69
2022/12/12 15:00:20;;;;;;;27.65;14.40;;;2.90;83.00;;;;;;9174188;19;20018;-69
2022/12/12 15:03:27;;;;;;;27.77;13.05;;;2.90;82.90;;;;;;9176535;19;20105;-69
2022/12/12 15:06:36;;;;;;;35.85;14.18;;;2.80;82.90;;;;;;9170763;19;20042;-69
2022/12/12 15:09:40;;;;;;;35.08;12.57;;;2.80;82.90;;;;;;9176425;19;20021;-68
2022/12/12 15:12:45;;;;;;;36.08;12.63;;;2.80;83.00;;;;;;9177681;19;20098;-69
2022/12/12 15:15:52;;;;;;;32.72;13.35;;;2.70;82.90;;;;;;9172878;19;20078;-70
2022/12/12 15:18:57;;;;;;;32.70;12.18;;;2.70;82.90;;;;;;9175439;19;20018;-68
2022/12/12 15:22:00;;;;;;;24.83;12.30;;;2.60;82.90;;;;;;9179249;19;20014;-70
2022/12/12 15:25:05;;;;;;;;;;;2.60;82.90;;;;;;9177871;19;20022;-70
2022/12/12 15:28:17;;;;;;;28.60;12.18;;;2.60;82.90;;;;;;9178720;19;20008;-69
2022/12/12 15:31:23;;;;;;;25.90;12.38;;;2.50;82.90;;;;;;9176609;19;20022;-70
2022/12/12 15:34:39;;;;;;;28.65;12.10;;;2.40;82.80;;;;;;9175231;19;20037;-69
2022/12/12 15:37:43;;;;;;;28.15;12.00;;;2.40;82.80;;;;;;9177828;19;20372;-70
2022/12/12 15:40:51;;;;;;;29.85;12.55;;;2.30;82.80;;;;;;9178362;19;20351;-69
2022/12/12 15:43:56;;;;;;;43.50;13.20;;;2.30;82.90;;;;;;9177805;19;20356;-70
2022/12/12 15:47:02;;;;;;;64.70;14.20;;;2.20;82.90;;;;;;9176407;19;20329;-70
2022/12/12 15:50:15;;;;;;;43.85;14.55;;;2.20;82.90;;;;;;9175419;19;20034;-70
2022/12/12 15:53:23;;;;;;;44.78;13.60;;;2.20;82.90;;;;;;9172130;19;20337;-70
2022/12/12 15:56:29;;;;;;;35.35;13.75;;;2.10;82.90;;;;;;9175440;19;20375;-69
2022/12/12 15:59:34;;;;;;;33.80;12.38;;;2.10;82.90;;;;;;9177571;19;20478;-69
2022/12/12 16:02:41;;;;;;;34.45;12.98;;;2.00;82.80;;;;;;9176597;19;20470;-69
2022/12/12 16:05:45;;;;;;;38.15;16.20;;;2.00;82.80;;;;;;9175433;19;20030;-70
2022/12/12 16:08:55;;;;;;;48.85;19.60;;;2.00;82.80;;;;;;9169607;19;20035;-69
2022/12/12 16:12:00;;;;;;;54.45;21.08;;;1.90;82.70;;;;;;9169457;19;20018;-69
2022/12/12 16:15:20;;;;;;;63.92;22.73;;;1.90;82.80;;;;;;9165463;19;20014;-71
2022/12/12 16:18:26;;;;;;;61.83;24.70;;;1.80;83.20;;;;;;9161941;19;20047;-67
2022/12/12 16:21:32;;;;;;;65.15;26.27;;;1.80;82.70;;;;;;9160219;19;20082;-71
2022/12/12 16:24:47;;;;;;;55.25;22.60;;;1.80;83.20;;;;;;9168658;19;20018;-71
2022/12/12 16:27:56;;;;;;;48.30;18.67;;;1.70;82.70;;;;;;9170265;19;20019;-71
2022/12/12 16:31:02;;;;;;;42.35;15.68;;;1.70;82.80;;;;;;9162392;19;20046;-69
2022/12/12 16:34:09;;;;;;;34.05;14.23;;;1.60;82.70;;;;;;9163668;19;20051;-70
2022/12/12 16:37:15;;;;;;;30.63;12.55;;;1.60;82.80;;;;;;9161498;19;20022;-67